Latest Weather Observations for Griffith

IDN60801

Issued at 12:34 pm EDT Monday 2 February 2015 (issued every 30 minutes, with the page automatically refreshed every 10 minutes)

About weather observations | Map of weather stations | Latest weather observations for NSW | Other Formats
Station Details ID: 075041 Name: GRIFFITH AIRPORT AWS Lat: -34.25 Lon: 146.07 Height: 134.0 m
Data from the previous 72 hours. | See also: Recent months at Griffith
Date/Time
EDT
Temp
°C
App
Temp
°C
Dew
Point
Rel
Hum
%
Delta-T
°C
Wind Press
QNH
hPa
Press
MSL
hPa
Rain
since 9 am
mm
Dir
 
Spd
km/h
Gust
km/h
Spd
kts
Gust
kts
02/12:30pm 28.0 23.8 9.8 32 10.2 ESE 22 35 12 19 1014.6 1014.0 0.0
02/12:00pm 26.1 22.1 10.3 37 8.9 ESE 22 32 12 17 1014.7 1014.1 0.0
02/11:30am 25.9 22.0 10.9 39 8.5 ESE 22 33 12 18 1014.8 1014.2 0.0
02/11:00am 25.0 20.9 11.6 43 7.6 ESE 24 37 13 20 1014.8 1014.2 0.0
02/10:30am 23.7 19.4 12.0 48 6.7 ESE 26 35 14 19 1014.7 1014.1 0.0
02/10:00am 22.7 17.6 12.0 50 6.1 ESE 30 41 16 22 1014.5 1013.9 0.0
02/09:30am 22.0 17.4 12.3 54 5.5 ESE 28 35 15 19 1014.3 1013.7 0.0
02/09:00am 20.9 17.1 12.3 58 4.9 ESE 24 33 13 18 1014.0 1013.4 0.0
02/08:30am 19.7 15.8 12.0 61 4.3 SE 24 32 13 17 1013.9 1013.3 0.0
02/08:00am 18.7 14.8 12.0 65 3.7 SE 24 32 13 17 1013.5 1012.8 0.0
02/07:30am 16.5 13.2 11.6 73 2.7 SE 20 28 11 15 1013.0 1012.3 0.0
02/07:00am 15.5 12.1 11.3 76 2.3 SSE 20 28 11 15 1012.4 1011.7 0.0
02/06:30am 15.4 12.6 11.2 76 2.3 S 17 24 9 13 1011.9 1011.2 0.0
02/06:00am 15.7 12.8 11.1 74 2.5 S 17 22 9 12 1011.5 1010.8 0.0
02/05:30am 16.0 12.8 11.2 73 2.6 S 19 24 10 13 1011.3 1010.6 0.0
02/05:00am 16.3 12.8 11.0 71 2.9 SSW 20 30 11 16 1011.0 1010.3 0.0
02/04:30am 16.7 13.3 11.2 70 3.0 S 20 26 11 14 1010.8 1010.1 0.0
02/04:00am 17.0 14.1 11.1 68 3.2 SSW 17 20 9 11 1010.7 1010.0 0.0
02/03:30am 17.6 14.4 11.2 66 3.5 S 19 24 10 13 1010.7 1010.0 0.0
02/03:00am 18.0 15.1 11.1 64 3.8 S 17 24 9 13 1010.8 1010.1 0.0
02/02:30am 18.6 15.3 10.9 61 4.2 S 19 24 10 13 1010.9 1010.2 0.0
02/02:00am 19.3 16.3 10.6 57 4.7 S 17 24 9 13 1011.1 1010.4 0.0
02/01:30am 19.8 16.3 10.2 54 5.2 SSE 19 26 10 14 1011.1 1010.4 0.0
02/01:00am 20.3 16.9 9.2 49 5.9 SSE 17 24 9 13 1011.3 1010.6 0.0
02/12:30am 20.7 16.6 8.7 46 6.4 S 20 28 11 15 1010.7 1010.0 0.0
02/12:00am 21.1 17.8 8.0 43 6.9 S 15 20 8 11 1010.6 1009.9 0.0
 
Date/Time
EDT
Temp
°C
App
Temp
°C
Dew
Point
Rel
Hum
%
Delta-T
°C
Wind Press
QNH
hPa
Press
MSL
hPa
Rain
since 9 am
mm
Dir
 
Spd
km/h
Gust
km/h
Spd
kts
Gust
kts
01/11:30pm 22.0 17.7 7.8 40 7.4 S 20 30 11 16 1010.4 1009.7 0.0
01/11:00pm 22.7 18.9 7.7 38 7.9 S 17 24 9 13 1010.3 1009.6 0.0
01/10:30pm 23.5 18.8 7.6 36 8.4 S 22 30 12 16 1010.2 1009.5 0.0
01/10:00pm 24.4 21.6 8.4 36 8.6 SSE 13 20 7 11 1009.7 1009.0 0.0
01/09:30pm 24.8 21.8 7.9 34 9.0 SW 13 20 7 11 1009.2 1008.5 0.0
01/08:30pm 24.8 21.6 7.0 32 9.4 W 13 15 7 8 1008.7 1008.0 0.0
01/08:00pm 26.3 22.7 6.9 29 10.3 W 15 22 8 12 1008.4 1007.7 0.0
01/07:30pm 27.3 23.2 6.1 26 11.1 W 17 28 9 15 1007.9 1007.3 0.0
01/07:00pm 28.1 24.4 6.2 25 11.6 W 15 24 8 13 1007.6 1007.0 0.0
01/06:30pm 28.5 25.4 7.1 26 11.5 W 13 22 7 12 1007.6 1007.0 0.0
01/05:30pm 28.4 24.5 5.3 23 12.0 W 15 24 8 13 1007.6 1007.0 0.0
01/05:00pm 27.8 23.1 6.0 25 11.5 W 20 33 11 18 1007.8 1007.2 0.0
01/04:30pm 27.5 23.4 6.3 26 11.2 WSW 17 24 9 13 1008.2 1007.5 0.0
01/04:00pm 27.9 23.4 6.1 25 11.5 SW 19 33 10 18 1008.4 1007.7 0.0
01/03:30pm 26.9 22.8 6.3 27 10.8 WNW 17 30 9 16 1008.4 1007.7 0.0
01/03:00pm 26.8 23.2 6.8 28 10.6 W 15 32 8 17 1008.7 1008.0 0.0
01/02:30pm 26.0 21.0 6.6 29 10.2 W 22 32 12 17 1009.0 1008.3 0.0
01/02:00pm 26.4 20.9 5.9 27 10.7 SW 24 33 13 18 1009.3 1008.6 0.0
01/01:30pm 25.1 19.7 6.3 30 9.8 W 24 37 13 20 1009.7 1009.0 0.0
01/01:00pm 24.6 19.2 6.4 31 9.5 W 24 37 13 20 1009.9 1009.2 0.0
01/12:30pm 24.0 18.9 7.6 35 8.7 W 24 33 13 18 1010.3 1009.6 0.0
01/12:00pm 23.2 18.8 8.9 40 7.7 WSW 22 32 12 17 1010.7 1010.0 0.0
01/11:30am 22.6 18.9 9.4 43 7.2 WSW 19 28 10 15 1010.9 1010.2 0.0
01/11:00am 21.2 18.4 10.1 49 6.1 WSW 15 22 8 12 1011.0 1010.3 0.0
01/10:30am 19.2 16.9 10.5 57 4.7 W 13 19 7 10 1011.0 1010.3 0.0
01/10:00am 18.0 15.7 10.4 61 4.1 SW 13 20 7 11 1010.9 1010.2 0.0
01/09:30am 18.2 16.0 10.8 62 4.0 SW 13 20 7 11 1010.7 1010.0 0.0
01/09:00am 16.6 13.9 10.2 66 3.4 SW 15 20 8 11 1010.6 1009.9 0.0
01/08:30am 16.1 12.5 9.8 66 3.3 SW 19 24 10 13 1010.7 1010.0 0.0
01/08:00am 15.2 12.2 9.1 67 3.2 SW 15 19 8 10 1010.1 1009.4 0.0
01/07:30am 15.4 12.8 9.3 67 3.2 SW 13 19 7 10 1009.9 1009.2 0.0
01/07:00am 13.4 11.9 9.1 75 2.2 WNW 7 9 4 5 1009.7 1009.0 0.0
01/06:30am 14.2 12.6 8.8 70 2.7 WSW 7 9 4 5 1009.5 1008.8 0.0
01/06:00am 14.6 12.3 9.0 69 2.9 WSW 11 13 6 7 1009.3 1008.6 0.0
01/05:30am 14.8 12.8 8.7 67 3.1 SW 9 11 5 6 1009.1 1008.4 0.0
01/05:00am 15.4 13.8 8.9 65 3.3 SW 7 9 4 5 1009.0 1008.3 0.0
01/04:30am 15.8 14.4 8.8 63 3.6 SSW 6 9 3 5 1008.8 1008.1 0.0
01/04:00am 16.3 14.9 9.0 62 3.8 SSW 6 11 3 6 1009.0 1008.3 0.0
01/03:30am 16.8 15.5 9.2 61 4.0 SSW 6 9 3 5 1009.1 1008.4 0.0
01/03:00am 17.3 15.1 9.2 59 4.2 S 11 17 6 9 1008.8 1008.1 0.0
01/02:30am 17.8 15.2 9.2 57 4.5 S 13 19 7 10 1008.7 1008.0 0.0
01/02:00am 18.4 14.9 8.9 54 5.0 S 17 22 9 12 1008.8 1008.1 0.0
01/01:30am 18.9 15.4 8.6 51 5.4 S 17 22 9 12 1009.0 1008.3 0.0
01/01:00am 19.6 15.8 7.7 46 6.2 S 17 22 9 12 1009.0 1008.3 0.0
01/12:30am 20.3 16.1 7.3 43 6.7 S 19 24 10 13 1008.9 1008.2 0.0
01/12:00am 20.8 16.7 6.4 39 7.3 S 17 22 9 12 1009.0 1008.3 0.0
 
Date/Time
EDT
Temp
°C
App
Temp
°C
Dew
Point
Rel
Hum
%
Delta-T
°C
Wind Press
QNH
hPa
Press
MSL
hPa
Rain
since 9 am
mm
Dir
 
Spd
km/h
Gust
km/h
Spd
kts
Gust
kts
31/11:30pm 21.5 17.0 6.2 37 7.8 S 19 26 10 14 1009.3 1008.6 0.0
31/11:00pm 22.0 18.6 5.8 35 8.2 SSW 13 15 7 8 1009.2 1008.5 0.0
31/10:30pm 22.5 19.2 6.3 35 8.3 SW 13 19 7 10 1009.3 1008.6 0.0
31/10:00pm 22.5 19.6 6.3 35 8.3 SW 11 13 6 7 1009.0 1008.3 0.0
31/09:30pm 23.9 20.5 5.8 31 9.3 SW 13 17 7 9 1008.6 1007.9 0.0
31/09:00pm 24.3 20.8 5.6 30 9.6 SW 13 19 7 10 1008.4 1007.7 0.0
31/08:30pm 25.2 21.0 5.9 29 10.0 SW 17 22 9 12 1008.3 1007.6 0.0
31/08:00pm 26.2 21.4 5.7 27 10.6 SW 20 26 11 14 1007.9 1007.3 0.0
31/07:30pm 27.1 22.0 6.0 26 11.0 SW 22 30 12 16 1007.8 1007.2 0.0
31/07:00pm 27.7 22.1 5.3 24 11.7 SW 24 33 13 18 1007.4 1006.7 0.0
31/06:30pm 27.8 21.9 6.0 25 11.5 SW 26 37 14 20 1007.3 1006.6 0.0
31/06:00pm 27.9 22.4 6.1 25 11.5 SW 24 35 13 19 1007.2 1006.5 0.0
31/05:30pm 28.6 22.4 6.1 24 11.9 SW 28 43 15 23 1007.4 1006.7 0.0
31/05:00pm 28.2 23.2 6.3 25 11.6 SSW 22 33 12 18 1007.5 1006.9 0.0
31/04:30pm 27.9 22.7 5.5 24 11.7 SW 22 32 12 17 1007.8 1007.2 0.0
31/04:00pm 27.0 21.4 5.3 25 11.2 SW 24 41 13 22 1008.2 1007.5 0.0
31/03:30pm 27.2 21.6 5.5 25 11.3 SW 24 35 13 19 1008.5 1007.8 0.0
31/03:00pm 26.6 20.6 5.5 26 10.9 WSW 26 39 14 21 1008.7 1008.0 0.0
31/02:30pm 25.9 19.6 5.5 27 10.5 W 28 39 15 21 1008.9 1008.2 0.0
31/02:29pm 25.7 19.3 5.3 27 10.5 WSW 28 39 15 21 1008.9 1008.2 0.0
31/02:00pm 25.2 20.6 5.4 28 10.2 SW 19 35 10 19 1009.0 1008.3 0.0
31/01:30pm 25.1 20.0 5.8 29 9.9 SW 22 33 12 18 1009.3 1008.6 0.0
31/01:00pm 24.2 19.5 6.0 31 9.4 SW 20 33 11 18 1009.7 1009.0 0.0
31/12:30pm 23.4 18.5 6.7 34 8.7 WSW 22 30 12 16 1009.9 1009.2 0.0
31/12:00pm 23.2 18.9 6.9 35 8.5 W 19 26 10 14 1010.2 1009.5 0.0
31/11:30am 21.8 18.1 6.1 36 8.0 SW 15 24 8 13 1010.1 1009.4 0.0
31/11:00am 21.3 18.1 6.8 39 7.4 SSW 13 20 7 11 1010.2 1009.5 0.0
31/10:30am 20.0 16.8 6.7 42 6.7 SSW 13 20 7 11 1010.4 1009.7 0.0
31/10:00am 19.5 16.5 7.6 46 6.1 SSW 13 22 7 12 1010.5 1009.8 0.0
31/09:30am 18.1 15.4 7.5 50 5.4 SSW 11 19 6 10 1010.6 1009.9 0.0
31/09:00am 17.3 14.0 8.2 55 4.7 S 15 22 8 12 1010.6 1009.9 0.0
31/08:30am 15.7 11.5 7.5 58 4.1 S 19 28 10 15 1010.3 1009.6 0.0
31/08:00am 15.1 10.7 7.6 61 3.8 S 20 30 11 16 1010.2 1009.5 0.0
31/07:30am 14.4 10.6 7.5 63 3.4 SSW 17 24 9 13 1009.9 1009.2 0.0
31/07:00am 13.3 10.9 7.1 66 3.0 SW 9 13 5 7 1009.7 1009.0 0.0
31/06:30am 13.3 11.3 7.1 66 3.0 SW 7 13 4 7 1009.6 1008.9 0.0
31/06:00am 13.4 11.4 7.0 65 3.1 W 7 11 4 6 1009.3 1008.6 0.0
31/05:30am 14.1 12.6 6.9 62 3.5 W 4 11 2 6 1008.8 1008.1 0.0
31/05:00am 14.7 11.5 7.0 60 3.8 SSW 13 19 7 10 1008.6 1007.9 0.0
31/04:30am 15.5 11.6 7.0 57 4.2 S 17 22 9 12 1008.5 1007.8 0.0
31/04:00am 15.7 11.8 7.0 56 4.3 S 17 22 9 12 1008.5 1007.8 0.0
31/03:30am 16.3 12.3 6.7 53 4.8 S 17 22 9 12 1008.5 1007.8 0.0
31/03:00am 16.6 12.1 6.1 50 5.2 S 19 28 10 15 1008.7 1008.0 0.0
31/02:30am 17.4 11.9 6.0 47 5.6 S 24 32 13 17 1008.7 1008.0 0.0
31/02:00am 17.7 12.1 5.6 45 5.9 S 24 32 13 17 1009.0 1008.3 0.0
31/01:30am 18.1 12.0 5.0 42 6.3 SSW 26 35 14 19 1009.4 1008.7 0.0
31/01:00am 18.5 12.7 4.3 39 6.8 SSW 24 33 13 18 1009.5 1008.8 0.0
31/12:30am 18.9 13.3 3.5 36 7.3 SSW 22 32 12 17 1009.6 1008.9 0.0
31/12:00am 19.4 14.1 3.2 34 7.7 SSW 20 26 11 14 1009.6 1008.9 0.0
 
Date/Time
EDT
Temp
°C
App
Temp
°C
Dew
Point
Rel
Hum
%
Delta-T
°C
Wind Press
QNH
hPa
Press
MSL
hPa
Rain
since 9 am
mm
Dir
 
Spd
km/h
Gust
km/h
Spd
kts
Gust
kts
30/11:30pm 19.7 14.4 2.1 31 8.1 SSW 19 24 10 13 1009.5 1008.8 0.0
30/11:00pm 20.1 14.8 2.0 30 8.4 SSW 19 22 10 12 1009.5 1008.8 0.0
30/10:30pm 20.9 16.0 1.7 28 8.9 SSW 17 24 9 13 1009.4 1008.7 0.0
30/10:00pm 21.1 15.8 1.9 28 9.0 SSW 19 26 10 14 1009.4 1008.7 0.0
30/09:30pm 21.8 16.9 2.0 27 9.3 SW 17 22 9 12 1009.2 1008.5 0.0
30/09:00pm 21.8 18.0 2.0 27 9.3 SSW 11 15 6 8 1009.0 1008.3 0.0
30/08:30pm 22.8 18.6 1.8 25 9.9 SSW 13 19 7 10 1008.8 1008.1 0.0
30/08:00pm 23.8 18.9 2.0 24 10.4 SSW 17 24 9 13 1008.7 1008.0 0.0
30/07:30pm 24.2 18.0 -0.2 20 11.2 S 22 35 12 19 1008.6 1007.9 0.0
30/07:00pm 24.8 17.8 1.7 22 11.0 SSW 28 39 15 21 1008.3 1007.6 0.0
30/06:30pm 25.3 18.3 2.1 22 11.2 SSW 28 43 15 23 1008.2 1007.5 0.0
30/06:00pm 25.5 19.3 2.2 22 11.3 S 24 43 13 23 1008.2 1007.5 0.0
30/05:30pm 26.4 19.7 1.7 20 11.9 S 26 37 14 20 1008.2 1007.5 0.0
30/05:00pm 26.1 20.3 2.1 21 11.7 SSW 22 33 12 18 1008.5 1007.8 0.0
30/04:30pm 26.1 19.8 1.4 20 11.8 SW 24 39 13 21 1008.8 1008.1 0.0
30/04:00pm 26.1 19.3 0.7 19 12.0 SSW 26 43 14 23 1009.3 1008.6 0.0
30/03:30pm 25.8 20.8 1.2 20 11.7 SSW 17 28 9 15 1009.4 1008.7 0.0
30/03:00pm 25.4 19.8 1.5 21 11.4 SSW 20 39 11 21 1009.9 1009.2 0.0
30/02:30pm 24.8 19.6 2.3 23 10.9 SW 19 30 10 16 1010.2 1009.5 0.0
30/02:00pm 24.3 18.9 1.2 22 10.9 SW 19 32 10 17 1010.6 1009.9 0.0
30/01:30pm 24.6 19.1 2.1 23 10.8 SSW 20 32 11 17 1011.1 1010.4 0.0
30/01:00pm 22.9 17.4 1.8 25 10.0 SSW 20 33 11 18 1011.5 1010.8 0.0

Other Formats:

Comma delimited format used in spreadsheet applications
http://www.bom.gov.au/fwo/IDN60801/IDN60801.95704.axf

JavaScript Object Notation format (JSON) in row-major order
http://www.bom.gov.au/fwo/IDN60801/IDN60801.95704.json